sensor_id;sensor_type;location;lat;lon;timestamp;P1;durP1;ratioP1;P2;durP2;ratioP2
52450;SDS011;38366;53.176;6.540;2022-11-06T00:00:38;6.38;;;3.55;;
52450;SDS011;38366;53.176;6.540;2022-11-06T00:03:04;8.10;;;3.58;;
52450;SDS011;38366;53.176;6.540;2022-11-06T00:05:31;10.55;;;4.63;;
52450;SDS011;38366;53.176;6.540;2022-11-06T00:08:24;7.15;;;3.72;;
52450;SDS011;38366;53.176;6.540;2022-11-06T00:10:51;7.72;;;3.83;;
52450;SDS011;38366;53.176;6.540;2022-11-06T00:13:17;8.73;;;4.33;;
52450;SDS011;38366;53.176;6.540;2022-11-06T00:15:43;8.73;;;4.63;;
52450;SDS011;38366;53.176;6.540;2022-11-06T00:18:08;13.60;;;4.07;;
52450;SDS011;38366;53.176;6.540;2022-11-06T00:20:35;7.67;;;4.90;;
52450;SDS011;38366;53.176;6.540;2022-11-06T00:23:01;10.70;;;4.20;;
52450;SDS011;38366;53.176;6.540;2022-11-06T00:25:26;11.67;;;4.37;;
52450;SDS011;38366;53.176;6.540;2022-11-06T00:27:52;7.97;;;3.93;;
52450;SDS011;38366;53.176;6.540;2022-11-06T00:30:17;6.68;;;4.13;;
52450;SDS011;38366;53.176;6.540;2022-11-06T00:32:45;10.55;;;4.65;;
52450;SDS011;38366;53.176;6.540;2022-11-06T00:35:11;8.20;;;5.32;;
52450;SDS011;38366;53.176;6.540;2022-11-06T00:37:37;10.82;;;5.65;;
52450;SDS011;38366;53.176;6.540;2022-11-06T00:40:03;9.30;;;5.15;;
52450;SDS011;38366;53.176;6.540;2022-11-06T00:44:55;10.98;;;6.03;;
52450;SDS011;38366;53.176;6.540;2022-11-06T00:47:21;10.05;;;4.78;;
52450;SDS011;38366;53.176;6.540;2022-11-06T00:49:47;13.05;;;5.30;;
52450;SDS011;38366;53.176;6.540;2022-11-06T00:52:13;12.53;;;6.17;;
52450;SDS011;38366;53.176;6.540;2022-11-06T00:54:39;9.68;;;4.85;;
52450;SDS011;38366;53.176;6.540;2022-11-06T00:57:04;14.73;;;6.23;;
52450;SDS011;38366;53.176;6.540;2022-11-06T00:59:31;12.88;;;5.63;;
52450;SDS011;38366;53.176;6.540;2022-11-06T01:01:56;11.60;;;5.78;;
52450;SDS011;38366;53.176;6.540;2022-11-06T01:04:23;12.75;;;7.25;;
52450;SDS011;38366;53.176;6.540;2022-11-06T01:06:50;13.25;;;6.40;;
52450;SDS011;38366;53.176;6.540;2022-11-06T01:09:18;11.05;;;5.93;;
52450;SDS011;38366;53.176;6.540;2022-11-06T01:11:47;14.35;;;6.93;;
52450;SDS011;38366;53.176;6.540;2022-11-06T01:14:15;8.48;;;5.05;;
52450;SDS011;38366;53.176;6.540;2022-11-06T01:16:42;12.60;;;7.07;;
52450;SDS011;38366;53.176;6.540;2022-11-06T01:19:10;15.05;;;6.53;;
52450;SDS011;38366;53.176;6.540;2022-11-06T01:21:38;11.32;;;5.82;;
52450;SDS011;38366;53.176;6.540;2022-11-06T01:24:05;10.75;;;6.28;;
52450;SDS011;38366;53.176;6.540;2022-11-06T01:26:34;13.30;;;6.10;;
52450;SDS011;38366;53.176;6.540;2022-11-06T01:29:00;12.23;;;7.13;;
52450;SDS011;38366;53.176;6.540;2022-11-06T01:31:29;10.30;;;5.90;;
52450;SDS011;38366;53.176;6.540;2022-11-06T01:33:57;14.90;;;7.03;;
52450;SDS011;38366;53.176;6.540;2022-11-06T01:36:24;14.18;;;6.78;;
52450;SDS011;38366;53.176;6.540;2022-11-06T01:38:52;12.13;;;5.93;;
52450;SDS011;38366;53.176;6.540;2022-11-06T01:41:23;13.02;;;6.93;;
52450;SDS011;38366;53.176;6.540;2022-11-06T01:46:21;16.83;;;7.78;;
52450;SDS011;38366;53.176;6.540;2022-11-06T01:48:53;16.48;;;6.93;;
52450;SDS011;38366;53.176;6.540;2022-11-06T01:51:26;14.73;;;8.07;;
52450;SDS011;38366;53.176;6.540;2022-11-06T01:53:54;11.40;;;6.95;;
52450;SDS011;38366;53.176;6.540;2022-11-06T01:56:21;12.15;;;7.07;;
52450;SDS011;38366;53.176;6.540;2022-11-06T01:58:48;15.85;;;7.28;;
52450;SDS011;38366;53.176;6.540;2022-11-06T02:01:16;12.82;;;7.22;;
52450;SDS011;38366;53.176;6.540;2022-11-06T02:03:45;16.88;;;7.93;;
52450;SDS011;38366;53.176;6.540;2022-11-06T02:06:17;16.45;;;8.27;;
52450;SDS011;38366;53.176;6.540;2022-11-06T02:11:09;14.57;;;7.63;;
52450;SDS011;38366;53.176;6.540;2022-11-06T02:27:36;17.75;;;8.75;;
52450;SDS011;38366;53.176;6.540;2022-11-06T02:30:08;11.88;;;7.15;;
52450;SDS011;38366;53.176;6.540;2022-11-06T02:35:23;13.65;;;7.30;;
52450;SDS011;38366;53.176;6.540;2022-11-06T02:38:08;15.35;;;7.55;;
52450;SDS011;38366;53.176;6.540;2022-11-06T02:40:38;16.33;;;9.48;;
52450;SDS011;38366;53.176;6.540;2022-11-06T02:43:07;14.63;;;8.68;;
52450;SDS011;38366;53.176;6.540;2022-11-06T02:48:05;15.98;;;8.60;;
52450;SDS011;38366;53.176;6.540;2022-11-06T02:50:37;13.60;;;7.03;;
52450;SDS011;38366;53.176;6.540;2022-11-06T02:53:07;13.45;;;7.15;;
52450;SDS011;38366;53.176;6.540;2022-11-06T02:55:37;14.80;;;7.95;;
52450;SDS011;38366;53.176;6.540;2022-11-06T02:58:16;16.20;;;8.10;;
52450;SDS011;38366;53.176;6.540;2022-11-06T03:00:47;14.27;;;7.28;;
52450;SDS011;38366;53.176;6.540;2022-11-06T03:03:22;12.13;;;8.55;;
52450;SDS011;38366;53.176;6.540;2022-11-06T03:06:00;15.50;;;8.27;;
52450;SDS011;38366;53.176;6.540;2022-11-06T03:08:35;14.70;;;8.55;;
52450;SDS011;38366;53.176;6.540;2022-11-06T03:22:07;14.32;;;9.32;;
52450;SDS011;38366;53.176;6.540;2022-11-06T03:24:55;13.25;;;8.43;;
52450;SDS011;38366;53.176;6.540;2022-11-06T03:27:34;15.48;;;8.13;;
52450;SDS011;38366;53.176;6.540;2022-11-06T03:30:06;15.07;;;7.93;;
52450;SDS011;38366;53.176;6.540;2022-11-06T03:32:53;12.15;;;6.75;;
52450;SDS011;38366;53.176;6.540;2022-11-06T03:35:30;13.52;;;8.45;;
52450;SDS011;38366;53.176;6.540;2022-11-06T03:40:38;13.25;;;7.85;;
52450;SDS011;38366;53.176;6.540;2022-11-06T03:43:08;13.93;;;7.05;;
52450;SDS011;38366;53.176;6.540;2022-11-06T03:45:37;13.00;;;7.50;;
52450;SDS011;38366;53.176;6.540;2022-11-06T03:48:10;13.27;;;7.40;;
52450;SDS011;38366;53.176;6.540;2022-11-06T03:50:46;11.93;;;7.03;;
52450;SDS011;38366;53.176;6.540;2022-11-06T03:53:22;13.95;;;7.63;;
52450;SDS011;38366;53.176;6.540;2022-11-06T03:56:05;9.48;;;6.65;;
52450;SDS011;38366;53.176;6.540;2022-11-06T03:58:38;11.52;;;6.65;;
52450;SDS011;38366;53.176;6.540;2022-11-06T04:01:08;16.23;;;7.68;;
52450;SDS011;38366;53.176;6.540;2022-11-06T04:06:41;15.00;;;7.30;;
52450;SDS011;38366;53.176;6.540;2022-11-06T04:09:12;15.95;;;7.43;;
52450;SDS011;38366;53.176;6.540;2022-11-06T04:11:59;14.15;;;7.70;;
52450;SDS011;38366;53.176;6.540;2022-11-06T04:17:14;16.83;;;8.40;;
52450;SDS011;38366;53.176;6.540;2022-11-06T04:31:31;12.18;;;6.93;;
52450;SDS011;38366;53.176;6.540;2022-11-06T04:34:12;17.77;;;7.53;;
52450;SDS011;38366;53.176;6.540;2022-11-06T04:39:23;17.90;;;7.68;;
52450;SDS011;38366;53.176;6.540;2022-11-06T04:42:13;14.65;;;7.68;;
52450;SDS011;38366;53.176;6.540;2022-11-06T04:44:55;15.60;;;7.63;;
52450;SDS011;38366;53.176;6.540;2022-11-06T04:47:33;13.95;;;7.35;;
52450;SDS011;38366;53.176;6.540;2022-11-06T04:50:01;11.38;;;7.07;;
52450;SDS011;38366;53.176;6.540;2022-11-06T04:52:29;13.80;;;7.43;;
52450;SDS011;38366;53.176;6.540;2022-11-06T04:54:56;14.88;;;7.60;;
52450;SDS011;38366;53.176;6.540;2022-11-06T04:57:23;13.60;;;7.68;;
52450;SDS011;38366;53.176;6.540;2022-11-06T04:59:50;13.63;;;7.45;;
52450;SDS011;38366;53.176;6.540;2022-11-06T05:02:16;11.18;;;6.78;;
52450;SDS011;38366;53.176;6.540;2022-11-06T05:04:42;13.57;;;6.50;;
52450;SDS011;38366;53.176;6.540;2022-11-06T05:07:08;14.53;;;8.43;;
52450;SDS011;38366;53.176;6.540;2022-11-06T05:09:36;9.98;;;7.00;;
52450;SDS011;38366;53.176;6.540;2022-11-06T05:12:03;14.50;;;6.57;;
52450;SDS011;38366;53.176;6.540;2022-11-06T05:14:29;10.02;;;6.70;;
52450;SDS011;38366;53.176;6.540;2022-11-06T05:16:56;11.38;;;6.40;;
52450;SDS011;38366;53.176;6.540;2022-11-06T05:19:22;14.40;;;7.07;;
52450;SDS011;38366;53.176;6.540;2022-11-06T05:21:48;10.60;;;6.40;;
52450;SDS011;38366;53.176;6.540;2022-11-06T05:24:32;11.45;;;6.75;;
52450;SDS011;38366;53.176;6.540;2022-11-06T05:26:57;9.07;;;5.77;;
52450;SDS011;38366;53.176;6.540;2022-11-06T05:29:23;9.47;;;6.40;;
52450;SDS011;38366;53.176;6.540;2022-11-06T05:31:49;11.07;;;6.07;;
52450;SDS011;38366;53.176;6.540;2022-11-06T05:34:14;10.50;;;5.63;;
52450;SDS011;38366;53.176;6.540;2022-11-06T05:36:40;11.03;;;5.93;;
52450;SDS011;38366;53.176;6.540;2022-11-06T05:39:05;12.07;;;5.50;;
52450;SDS011;38366;53.176;6.540;2022-11-06T05:41:31;9.30;;;6.00;;
52450;SDS011;38366;53.176;6.540;2022-11-06T05:43:57;10.90;;;5.10;;
52450;SDS011;38366;53.176;6.540;2022-11-06T05:46:22;10.73;;;6.37;;
52450;SDS011;38366;53.176;6.540;2022-11-06T05:48:48;7.70;;;5.23;;
52450;SDS011;38366;53.176;6.540;2022-11-06T05:51:14;14.17;;;6.37;;
52450;SDS011;38366;53.176;6.540;2022-11-06T05:53:39;10.95;;;5.15;;
52450;SDS011;38366;53.176;6.540;2022-11-06T05:56:05;8.20;;;5.40;;
52450;SDS011;38366;53.176;6.540;2022-11-06T05:58:31;9.95;;;5.25;;
52450;SDS011;38366;53.176;6.540;2022-11-06T06:00:57;10.70;;;5.97;;
52450;SDS011;38366;53.176;6.540;2022-11-06T06:03:23;11.40;;;5.43;;
52450;SDS011;38366;53.176;6.540;2022-11-06T06:05:49;12.27;;;5.22;;
52450;SDS011;38366;53.176;6.540;2022-11-06T06:08:15;9.82;;;5.65;;
52450;SDS011;38366;53.176;6.540;2022-11-06T06:10:42;11.48;;;5.80;;
52450;SDS011;38366;53.176;6.540;2022-11-06T06:13:08;11.43;;;5.50;;
52450;SDS011;38366;53.176;6.540;2022-11-06T06:15:36;10.00;;;5.33;;
52450;SDS011;38366;53.176;6.540;2022-11-06T06:18:03;10.23;;;4.93;;
52450;SDS011;38366;53.176;6.540;2022-11-06T06:20:29;11.75;;;5.13;;
52450;SDS011;38366;53.176;6.540;2022-11-06T06:22:55;8.70;;;5.83;;
52450;SDS011;38366;53.176;6.540;2022-11-06T06:25:21;9.88;;;4.80;;
52450;SDS011;38366;53.176;6.540;2022-11-06T06:27:47;10.35;;;5.22;;
52450;SDS011;38366;53.176;6.540;2022-11-06T06:30:13;14.82;;;5.75;;
52450;SDS011;38366;53.176;6.540;2022-11-06T06:32:38;13.32;;;5.15;;
52450;SDS011;38366;53.176;6.540;2022-11-06T06:35:04;7.80;;;4.57;;
52450;SDS011;38366;53.176;6.540;2022-11-06T06:37:30;10.38;;;4.57;;
52450;SDS011;38366;53.176;6.540;2022-11-06T06:39:55;6.83;;;5.00;;
52450;SDS011;38366;53.176;6.540;2022-11-06T06:42:21;9.10;;;4.78;;
52450;SDS011;38366;53.176;6.540;2022-11-06T06:44:47;11.43;;;4.50;;
52450;SDS011;38366;53.176;6.540;2022-11-06T06:47:13;10.82;;;4.70;;
52450;SDS011;38366;53.176;6.540;2022-11-06T06:49:42;7.85;;;3.30;;
52450;SDS011;38366;53.176;6.540;2022-11-06T06:52:08;11.95;;;4.80;;
52450;SDS011;38366;53.176;6.540;2022-11-06T06:54:34;6.78;;;4.00;;
52450;SDS011;38366;53.176;6.540;2022-11-06T06:57:00;12.38;;;4.80;;
52450;SDS011;38366;53.176;6.540;2022-11-06T06:59:29;12.77;;;4.57;;
52450;SDS011;38366;53.176;6.540;2022-11-06T07:01:55;7.82;;;4.50;;
52450;SDS011;38366;53.176;6.540;2022-11-06T07:04:21;7.63;;;3.88;;
52450;SDS011;38366;53.176;6.540;2022-11-06T07:06:47;6.95;;;3.70;;
52450;SDS011;38366;53.176;6.540;2022-11-06T07:09:13;8.57;;;3.50;;
52450;SDS011;38366;53.176;6.540;2022-11-06T07:11:39;8.30;;;3.88;;
52450;SDS011;38366;53.176;6.540;2022-11-06T07:14:04;9.27;;;4.00;;
52450;SDS011;38366;53.176;6.540;2022-11-06T07:16:30;11.00;;;3.97;;
52450;SDS011;38366;53.176;6.540;2022-11-06T07:18:56;11.15;;;4.22;;
52450;SDS011;38366;53.176;6.540;2022-11-06T07:21:23;7.15;;;3.72;;
52450;SDS011;38366;53.176;6.540;2022-11-06T07:23:49;12.93;;;3.70;;
52450;SDS011;38366;53.176;6.540;2022-11-06T07:26:15;9.40;;;3.80;;
52450;SDS011;38366;53.176;6.540;2022-11-06T07:28:40;7.25;;;3.40;;
52450;SDS011;38366;53.176;6.540;2022-11-06T07:31:06;9.45;;;3.67;;
52450;SDS011;38366;53.176;6.540;2022-11-06T07:33:33;6.40;;;3.20;;
52450;SDS011;38366;53.176;6.540;2022-11-06T07:36:06;11.30;;;3.67;;
52450;SDS011;38366;53.176;6.540;2022-11-06T07:38:34;7.65;;;3.35;;
52450;SDS011;38366;53.176;6.540;2022-11-06T07:41:01;7.57;;;3.25;;
52450;SDS011;38366;53.176;6.540;2022-11-06T07:43:28;6.93;;;2.80;;
52450;SDS011;38366;53.176;6.540;2022-11-06T07:45:57;14.35;;;3.75;;
52450;SDS011;38366;53.176;6.540;2022-11-06T07:48:24;8.90;;;3.13;;
52450;SDS011;38366;53.176;6.540;2022-11-06T07:50:50;8.90;;;3.27;;
52450;SDS011;38366;53.176;6.540;2022-11-06T07:53:16;5.87;;;3.30;;
52450;SDS011;38366;53.176;6.540;2022-11-06T07:55:48;7.07;;;3.10;;
52450;SDS011;38366;53.176;6.540;2022-11-06T07:58:14;11.48;;;3.95;;
52450;SDS011;38366;53.176;6.540;2022-11-06T08:00:44;9.60;;;3.08;;
52450;SDS011;38366;53.176;6.540;2022-11-06T08:03:15;8.07;;;2.95;;
52450;SDS011;38366;53.176;6.540;2022-11-06T08:05:41;7.40;;;3.35;;
52450;SDS011;38366;53.176;6.540;2022-11-06T08:08:07;9.05;;;2.85;;
52450;SDS011;38366;53.176;6.540;2022-11-06T08:10:33;9.18;;;3.50;;
52450;SDS011;38366;53.176;6.540;2022-11-06T08:13:01;7.70;;;3.53;;
52450;SDS011;38366;53.176;6.540;2022-11-06T08:15:27;10.10;;;3.80;;
52450;SDS011;38366;53.176;6.540;2022-11-06T08:17:53;9.40;;;3.70;;
52450;SDS011;38366;53.176;6.540;2022-11-06T08:20:18;7.13;;;3.17;;
52450;SDS011;38366;53.176;6.540;2022-11-06T08:22:44;8.97;;;3.87;;
52450;SDS011;38366;53.176;6.540;2022-11-06T08:25:10;8.07;;;2.93;;
52450;SDS011;38366;53.176;6.540;2022-11-06T08:27:36;9.43;;;3.53;;
52450;SDS011;38366;53.176;6.540;2022-11-06T08:30:02;8.33;;;3.70;;
52450;SDS011;38366;53.176;6.540;2022-11-06T08:32:28;10.02;;;3.40;;
52450;SDS011;38366;53.176;6.540;2022-11-06T08:34:54;10.32;;;3.47;;
52450;SDS011;38366;53.176;6.540;2022-11-06T08:37:20;12.77;;;3.65;;
52450;SDS011;38366;53.176;6.540;2022-11-06T08:39:45;5.60;;;3.30;;
52450;SDS011;38366;53.176;6.540;2022-11-06T08:42:11;9.40;;;3.07;;
52450;SDS011;38366;53.176;6.540;2022-11-06T08:47:03;9.90;;;3.15;;
52450;SDS011;38366;53.176;6.540;2022-11-06T08:49:29;8.73;;;3.20;;
52450;SDS011;38366;53.176;6.540;2022-11-06T08:51:55;8.87;;;3.07;;
52450;SDS011;38366;53.176;6.540;2022-11-06T08:54:20;7.27;;;3.03;;
52450;SDS011;38366;53.176;6.540;2022-11-06T08:56:46;7.83;;;2.60;;
52450;SDS011;38366;53.176;6.540;2022-11-06T09:01:38;6.15;;;3.10;;
52450;SDS011;38366;53.176;6.540;2022-11-06T09:04:03;8.80;;;2.97;;
52450;SDS011;38366;53.176;6.540;2022-11-06T09:06:30;7.32;;;3.10;;
52450;SDS011;38366;53.176;6.540;2022-11-06T09:08:55;5.63;;;2.70;;
52450;SDS011;38366;53.176;6.540;2022-11-06T09:11:21;7.40;;;2.63;;
52450;SDS011;38366;53.176;6.540;2022-11-06T09:13:47;6.57;;;2.80;;
52450;SDS011;38366;53.176;6.540;2022-11-06T09:16:13;7.65;;;2.90;;
52450;SDS011;38366;53.176;6.540;2022-11-06T09:18:39;3.83;;;1.97;;
52450;SDS011;38366;53.176;6.540;2022-11-06T09:21:04;8.67;;;2.97;;
52450;SDS011;38366;53.176;6.540;2022-11-06T09:23:30;7.30;;;2.70;;
52450;SDS011;38366;53.176;6.540;2022-11-06T09:25:56;6.32;;;2.15;;
52450;SDS011;38366;53.176;6.540;2022-11-06T09:30:48;6.80;;;2.40;;
52450;SDS011;38366;53.176;6.540;2022-11-06T09:33:13;11.00;;;2.20;;
52450;SDS011;38366;53.176;6.540;2022-11-06T09:35:39;7.05;;;1.98;;
52450;SDS011;38366;53.176;6.540;2022-11-06T09:38:06;5.45;;;2.30;;
52450;SDS011;38366;53.176;6.540;2022-11-06T09:40:41;3.95;;;1.90;;
52450;SDS011;38366;53.176;6.540;2022-11-06T09:45:39;5.70;;;2.20;;
52450;SDS011;38366;53.176;6.540;2022-11-06T09:50:39;8.95;;;2.30;;
52450;SDS011;38366;53.176;6.540;2022-11-06T09:53:35;4.07;;;2.08;;
52450;SDS011;38366;53.176;6.540;2022-11-06T09:56:12;7.70;;;2.40;;
52450;SDS011;38366;53.176;6.540;2022-11-06T09:58:41;5.72;;;2.42;;
52450;SDS011;38366;53.176;6.540;2022-11-06T10:01:19;5.70;;;2.13;;
52450;SDS011;38366;53.176;6.540;2022-11-06T10:03:57;6.10;;;2.20;;
52450;SDS011;38366;53.176;6.540;2022-11-06T10:06:24;5.80;;;2.30;;
52450;SDS011;38366;53.176;6.540;2022-11-06T10:08:52;7.32;;;2.08;;
52450;SDS011;38366;53.176;6.540;2022-11-06T10:27:34;5.90;;;2.47;;
52450;SDS011;38366;53.176;6.540;2022-11-06T10:30:12;5.60;;;1.75;;
52450;SDS011;38366;53.176;6.540;2022-11-06T10:38:35;5.85;;;1.73;;
52450;SDS011;38366;53.176;6.540;2022-11-06T10:40:47;6.72;;;2.10;;
52450;SDS011;38366;53.176;6.540;2022-11-06T10:49:16;3.92;;;1.70;;
52450;SDS011;38366;53.176;6.540;2022-11-06T10:57:43;5.18;;;2.00;;
52450;SDS011;38366;53.176;6.540;2022-11-06T11:00:17;4.60;;;1.73;;
52450;SDS011;38366;53.176;6.540;2022-11-06T11:03:01;4.70;;;1.73;;
52450;SDS011;38366;53.176;6.540;2022-11-06T11:05:40;4.93;;;1.60;;
52450;SDS011;38366;53.176;6.540;2022-11-06T11:11:01;6.63;;;2.20;;
52450;SDS011;38366;53.176;6.540;2022-11-06T11:13:29;6.65;;;1.90;;
52450;SDS011;38366;53.176;6.540;2022-11-06T11:15:55;3.90;;;1.52;;
52450;SDS011;38366;53.176;6.540;2022-11-06T11:18:22;6.07;;;2.10;;
52450;SDS011;38366;53.176;6.540;2022-11-06T11:21:03;5.75;;;2.00;;
52450;SDS011;38366;53.176;6.540;2022-11-06T11:23:31;5.37;;;1.93;;
52450;SDS011;38366;53.176;6.540;2022-11-06T11:25:57;7.10;;;2.20;;
52450;SDS011;38366;53.176;6.540;2022-11-06T11:28:52;5.18;;;2.38;;
52450;SDS011;38366;53.176;6.540;2022-11-06T11:31:26;3.83;;;1.70;;
52450;SDS011;38366;53.176;6.540;2022-11-06T11:34:00;7.22;;;2.63;;
52450;SDS011;38366;53.176;6.540;2022-11-06T11:39:19;7.20;;;1.90;;
52450;SDS011;38366;53.176;6.540;2022-11-06T11:41:49;6.82;;;2.60;;
52450;SDS011;38366;53.176;6.540;2022-11-06T11:44:16;5.38;;;1.80;;
52450;SDS011;38366;53.176;6.540;2022-11-06T11:46:47;7.18;;;2.17;;
52450;SDS011;38366;53.176;6.540;2022-11-06T11:49:28;5.10;;;2.15;;
52450;SDS011;38366;53.176;6.540;2022-11-06T11:52:01;5.55;;;2.30;;
52450;SDS011;38366;53.176;6.540;2022-11-06T11:54:35;4.00;;;1.85;;
52450;SDS011;38366;53.176;6.540;2022-11-06T11:57:03;6.82;;;2.45;;
52450;SDS011;38366;53.176;6.540;2022-11-06T11:59:31;4.47;;;2.40;;
52450;SDS011;38366;53.176;6.540;2022-11-06T12:02:21;5.25;;;1.70;;
52450;SDS011;38366;53.176;6.540;2022-11-06T12:04:52;4.57;;;1.77;;
52450;SDS011;38366;53.176;6.540;2022-11-06T12:10:59;8.93;;;2.15;;
52450;SDS011;38366;53.176;6.540;2022-11-06T12:13:28;6.35;;;2.10;;
52450;SDS011;38366;53.176;6.540;2022-11-06T12:16:05;6.22;;;1.80;;
52450;SDS011;38366;53.176;6.540;2022-11-06T12:18:41;6.55;;;1.88;;
52450;SDS011;38366;53.176;6.540;2022-11-06T12:23:43;6.65;;;1.92;;
52450;SDS011;38366;53.176;6.540;2022-11-06T12:28:49;5.82;;;2.05;;
52450;SDS011;38366;53.176;6.540;2022-11-06T12:31:31;4.53;;;2.03;;
52450;SDS011;38366;53.176;6.540;2022-11-06T12:34:25;7.13;;;1.83;;
52450;SDS011;38366;53.176;6.540;2022-11-06T12:39:39;2.85;;;1.52;;
52450;SDS011;38366;53.176;6.540;2022-11-06T12:42:11;3.85;;;1.80;;
52450;SDS011;38366;53.176;6.540;2022-11-06T12:50:13;5.43;;;1.67;;
52450;SDS011;38366;53.176;6.540;2022-11-06T12:55:47;6.38;;;1.30;;
52450;SDS011;38366;53.176;6.540;2022-11-06T13:01:28;4.00;;;1.55;;
52450;SDS011;38366;53.176;6.540;2022-11-06T13:09:56;4.85;;;1.30;;
52450;SDS011;38366;53.176;6.540;2022-11-06T13:15:08;6.63;;;1.58;;
52450;SDS011;38366;53.176;6.540;2022-11-06T13:20:19;6.20;;;1.20;;
52450;SDS011;38366;53.176;6.540;2022-11-06T13:23:12;4.85;;;1.25;;
52450;SDS011;38366;53.176;6.540;2022-11-06T13:25:56;4.40;;;1.40;;
52450;SDS011;38366;53.176;6.540;2022-11-06T13:31:02;3.50;;;1.00;;
52450;SDS011;38366;53.176;6.540;2022-11-06T13:33:35;5.10;;;1.10;;
52450;SDS011;38366;53.176;6.540;2022-11-06T13:36:17;5.60;;;1.15;;
52450;SDS011;38366;53.176;6.540;2022-11-06T13:39:28;5.60;;;1.85;;
52450;SDS011;38366;53.176;6.540;2022-11-06T13:41:35;9.30;;;1.30;;
52450;SDS011;38366;53.176;6.540;2022-11-06T13:44:05;3.97;;;1.33;;
52450;SDS011;38366;53.176;6.540;2022-11-06T13:49:39;3.50;;;1.25;;
52450;SDS011;38366;53.176;6.540;2022-11-06T13:52:20;4.55;;;1.17;;
52450;SDS011;38366;53.176;6.540;2022-11-06T14:00:51;3.72;;;1.02;;
52450;SDS011;38366;53.176;6.540;2022-11-06T14:06:19;3.10;;;0.93;;
52450;SDS011;38366;53.176;6.540;2022-11-06T14:08:49;5.38;;;1.33;;
52450;SDS011;38366;53.176;6.540;2022-11-06T14:11:27;5.43;;;1.13;;
52450;SDS011;38366;53.176;6.540;2022-11-06T14:14:00;4.00;;;1.17;;
52450;SDS011;38366;53.176;6.540;2022-11-06T14:16:29;4.03;;;1.50;;
52450;SDS011;38366;53.176;6.540;2022-11-06T14:21:46;2.97;;;0.90;;
52450;SDS011;38366;53.176;6.540;2022-11-06T14:26:53;4.00;;;1.10;;
52450;SDS011;38366;53.176;6.540;2022-11-06T14:32:02;3.72;;;1.00;;
52450;SDS011;38366;53.176;6.540;2022-11-06T14:34:33;1.85;;;0.77;;
52450;SDS011;38366;53.176;6.540;2022-11-06T14:42:40;4.50;;;1.20;;
52450;SDS011;38366;53.176;6.540;2022-11-06T14:45:10;7.85;;;1.52;;
52450;SDS011;38366;53.176;6.540;2022-11-06T14:50:34;3.40;;;1.42;;
52450;SDS011;38366;53.176;6.540;2022-11-06T14:53:11;6.32;;;1.42;;
52450;SDS011;38366;53.176;6.540;2022-11-06T14:55:58;6.93;;;1.50;;
52450;SDS011;38366;53.176;6.540;2022-11-06T14:58:27;3.72;;;1.23;;
52450;SDS011;38366;53.176;6.540;2022-11-06T15:06:06;5.68;;;1.30;;
52450;SDS011;38366;53.176;6.540;2022-11-06T15:16:36;4.97;;;1.10;;
52450;SDS011;38366;53.176;6.540;2022-11-06T15:19:22;5.07;;;1.33;;
52450;SDS011;38366;53.176;6.540;2022-11-06T15:24:37;5.07;;;1.30;;
52450;SDS011;38366;53.176;6.540;2022-11-06T15:27:07;4.25;;;1.10;;
52450;SDS011;38366;53.176;6.540;2022-11-06T15:29:39;5.72;;;1.35;;
52450;SDS011;38366;53.176;6.540;2022-11-06T15:32:09;4.97;;;1.60;;
52450;SDS011;38366;53.176;6.540;2022-11-06T15:34:42;4.43;;;1.20;;
52450;SDS011;38366;53.176;6.540;2022-11-06T15:37:30;4.35;;;1.60;;
52450;SDS011;38366;53.176;6.540;2022-11-06T15:40:02;4.30;;;1.50;;
52450;SDS011;38366;53.176;6.540;2022-11-06T15:42:29;5.47;;;1.45;;
52450;SDS011;38366;53.176;6.540;2022-11-06T15:47:39;4.22;;;1.73;;
52450;SDS011;38366;53.176;6.540;2022-11-06T15:50:35;4.07;;;1.77;;
52450;SDS011;38366;53.176;6.540;2022-11-06T15:53:34;2.92;;;1.70;;
52450;SDS011;38366;53.176;6.540;2022-11-06T15:58:28;6.50;;;2.15;;
52450;SDS011;38366;53.176;6.540;2022-11-06T16:01:01;8.63;;;2.15;;
52450;SDS011;38366;53.176;6.540;2022-11-06T16:03:29;8.60;;;2.25;;
52450;SDS011;38366;53.176;6.540;2022-11-06T16:05:59;5.60;;;2.17;;
52450;SDS011;38366;53.176;6.540;2022-11-06T16:08:27;5.18;;;2.25;;
52450;SDS011;38366;53.176;6.540;2022-11-06T16:10:55;8.43;;;2.85;;
52450;SDS011;38366;53.176;6.540;2022-11-06T16:16:35;10.95;;;3.00;;
52450;SDS011;38366;53.176;6.540;2022-11-06T16:19:05;7.13;;;2.70;;
52450;SDS011;38366;53.176;6.540;2022-11-06T16:21:46;7.60;;;2.70;;
52450;SDS011;38366;53.176;6.540;2022-11-06T16:24:18;6.68;;;2.80;;
52450;SDS011;38366;53.176;6.540;2022-11-06T16:26:47;7.88;;;2.88;;
52450;SDS011;38366;53.176;6.540;2022-11-06T16:29:35;10.10;;;3.38;;
52450;SDS011;38366;53.176;6.540;2022-11-06T16:32:04;8.52;;;3.28;;
52450;SDS011;38366;53.176;6.540;2022-11-06T16:34:34;6.93;;;3.17;;
52450;SDS011;38366;53.176;6.540;2022-11-06T16:53:17;7.70;;;2.83;;
52450;SDS011;38366;53.176;6.540;2022-11-06T16:55:55;4.95;;;2.53;;
52450;SDS011;38366;53.176;6.540;2022-11-06T16:58:20;6.97;;;2.72;;
52450;SDS011;38366;53.176;6.540;2022-11-06T17:00:53;4.80;;;1.98;;
52450;SDS011;38366;53.176;6.540;2022-11-06T17:03:23;4.75;;;1.63;;
52450;SDS011;38366;53.176;6.540;2022-11-06T17:05:51;3.28;;;1.80;;
52450;SDS011;38366;53.176;6.540;2022-11-06T17:08:23;2.80;;;1.58;;
52450;SDS011;38366;53.176;6.540;2022-11-06T17:10:57;2.78;;;1.17;;
52450;SDS011;38366;53.176;6.540;2022-11-06T17:13:48;3.60;;;1.17;;
52450;SDS011;38366;53.176;6.540;2022-11-06T17:16:15;4.15;;;0.70;;
52450;SDS011;38366;53.176;6.540;2022-11-06T17:18:46;3.17;;;0.88;;
52450;SDS011;38366;53.176;6.540;2022-11-06T17:23:41;3.20;;;0.80;;
52450;SDS011;38366;53.176;6.540;2022-11-06T17:26:13;2.33;;;0.70;;
52450;SDS011;38366;53.176;6.540;2022-11-06T17:28:42;3.88;;;0.70;;
52450;SDS011;38366;53.176;6.540;2022-11-06T17:31:12;1.23;;;0.55;;
52450;SDS011;38366;53.176;6.540;2022-11-06T17:33:39;2.35;;;0.90;;
52450;SDS011;38366;53.176;6.540;2022-11-06T17:36:05;1.55;;;0.70;;
52450;SDS011;38366;53.176;6.540;2022-11-06T17:38:32;2.33;;;0.90;;
52450;SDS011;38366;53.176;6.540;2022-11-06T17:40:58;1.77;;;0.90;;
52450;SDS011;38366;53.176;6.540;2022-11-06T17:43:23;1.17;;;0.50;;
52450;SDS011;38366;53.176;6.540;2022-11-06T17:45:49;1.63;;;0.50;;
52450;SDS011;38366;53.176;6.540;2022-11-06T17:48:16;2.78;;;0.70;;
52450;SDS011;38366;53.176;6.540;2022-11-06T17:50:42;1.50;;;0.63;;
52450;SDS011;38366;53.176;6.540;2022-11-06T17:53:26;2.70;;;0.88;;
52450;SDS011;38366;53.176;6.540;2022-11-06T17:55:51;1.97;;;0.67;;
52450;SDS011;38366;53.176;6.540;2022-11-06T17:58:17;2.72;;;0.90;;
52450;SDS011;38366;53.176;6.540;2022-11-06T18:00:43;2.63;;;0.70;;
52450;SDS011;38366;53.176;6.540;2022-11-06T18:03:16;1.83;;;0.80;;
52450;SDS011;38366;53.176;6.540;2022-11-06T18:05:43;4.07;;;0.90;;
52450;SDS011;38366;53.176;6.540;2022-11-06T18:10:36;3.28;;;1.13;;
52450;SDS011;38366;53.176;6.540;2022-11-06T18:13:03;3.17;;;1.13;;
52450;SDS011;38366;53.176;6.540;2022-11-06T18:15:31;1.90;;;1.10;;
52450;SDS011;38366;53.176;6.540;2022-11-06T18:17:58;2.85;;;0.98;;
52450;SDS011;38366;53.176;6.540;2022-11-06T18:20:24;5.78;;;1.55;;
52450;SDS011;38366;53.176;6.540;2022-11-06T18:22:50;4.07;;;1.40;;
52450;SDS011;38366;53.176;6.540;2022-11-06T18:25:15;3.27;;;1.10;;
52450;SDS011;38366;53.176;6.540;2022-11-06T18:27:41;3.58;;;1.38;;
52450;SDS011;38366;53.176;6.540;2022-11-06T18:30:07;3.23;;;1.20;;
52450;SDS011;38366;53.176;6.540;2022-11-06T18:32:33;2.15;;;1.42;;
52450;SDS011;38366;53.176;6.540;2022-11-06T18:34:59;3.73;;;1.40;;
52450;SDS011;38366;53.176;6.540;2022-11-06T18:37:25;3.13;;;1.30;;
52450;SDS011;38366;53.176;6.540;2022-11-06T18:39:50;5.40;;;1.30;;
52450;SDS011;38366;53.176;6.540;2022-11-06T18:42:16;2.20;;;1.40;;